Adel, Iowa
Current Conditions -  °F | °C
As of 5:55 AM on Monday 22 Dec 2014 (Local Time) from KPRO Reporting Station
Drizzle Drizzle  
Wind Chill: 32°   Ceiling: 900
Heat Index: 40°   Visibility: 5mi
Dew Point: 39°   Wind: 15mph
Humidity: 98%   Direction: 150°SSE
Pressure: 29.62"   Gusts: NA
Location:  41.61°N, 94.02°W
Report Text: KPRO 221155Z AUTO 15013KT 5SM -DZ OVC009 04/04 A2962 RMK AO2 T00430040 10052 20043
Loading
Personal Weather Stations






























Interactive Weather Map New forecast layout! Learn more

10-Day Weather Forecast

Advertisements
Track Severe Weather on mobile